createdAt,value
2018-08-10T00:01:24.729Z,29.4
2018-08-10T00:03:24.901Z,29.4
2018-08-10T00:05:24.970Z,29.4
2018-08-10T00:07:25.178Z,29.4
2018-08-10T00:09:25.341Z,29.4
2018-08-10T00:11:25.562Z,29.4
2018-08-10T00:13:25.569Z,28.299999999999997
2018-08-10T00:15:25.691Z,29.4
2018-08-10T00:17:25.857Z,28.299999999999997
2018-08-10T00:19:26.026Z,29.4
2018-08-10T00:21:26.117Z,29.4
2018-08-10T00:23:26.218Z,29.4
2018-08-10T00:25:26.389Z,29.4
2018-08-10T00:27:26.643Z,29.4
2018-08-10T00:29:26.804Z,28.299999999999997
2018-08-10T00:31:26.720Z,28.9
2018-08-10T00:33:26.862Z,29.4
2018-08-10T00:35:26.947Z,29.4
2018-08-10T00:37:27.141Z,28.9
2018-08-10T00:39:27.544Z,28.9
2018-08-10T00:41:27.474Z,29.4
2018-08-10T00:43:27.924Z,29.4
2018-08-10T00:45:27.623Z,29.4
2018-08-10T00:47:27.876Z,29.4
2018-08-10T00:49:28.096Z,29.4
2018-08-10T00:51:28.011Z,28.9
2018-08-10T00:53:28.295Z,28.9
2018-08-10T00:55:28.238Z,28.9
2018-08-10T00:57:28.396Z,29.4
2018-08-10T00:59:28.710Z,29.4
2018-08-10T01:01:28.789Z,29.4
2018-08-10T01:03:28.938Z,29.4
2018-08-10T01:05:29.138Z,29.4
2018-08-10T01:07:29.176Z,29.4
2018-08-10T01:09:29.299Z,29.4
2018-08-10T01:11:34.651Z,29.4
2018-08-10T01:13:29.900Z,29.4
2018-08-10T01:15:34.952Z,28.299999999999997
2018-08-10T01:17:30.059Z,28.9
2018-08-10T01:19:30.124Z,28.9
2018-08-10T01:21:30.152Z,29.4
2018-08-10T01:23:30.582Z,29.4
2018-08-10T01:25:30.755Z,28.9
2018-08-10T01:27:30.861Z,29.4
2018-08-10T01:29:31.065Z,28.9
2018-08-10T01:31:31.532Z,29.4
2018-08-10T01:33:31.390Z,29.4
2018-08-10T01:35:31.572Z,28.9
2018-08-10T01:37:31.818Z,29.4
2018-08-10T01:39:32.008Z,29.4
2018-08-10T01:41:37.092Z,29.4
2018-08-10T01:43:32.227Z,28.9
2018-08-10T01:45:32.333Z,29.4
2018-08-10T01:47:32.383Z,28.9
2018-08-10T01:49:32.523Z,29.4
2018-08-10T01:51:32.865Z,29.4
2018-08-10T01:53:32.970Z,29.4
2018-08-10T01:55:33.057Z,28.9
2018-08-10T01:57:33.192Z,29.4
2018-08-10T01:59:33.389Z,29.4
2018-08-10T02:01:33.489Z,29.4
2018-08-10T02:03:33.650Z,28.299999999999997
2018-08-10T02:05:33.694Z,29.4
2018-08-10T02:07:34.074Z,29.4
2018-08-10T02:09:34.016Z,29.4
2018-08-10T02:11:34.053Z,28.299999999999997
2018-08-10T02:13:34.377Z,29.4
2018-08-10T02:15:34.406Z,29.4
2018-08-10T02:17:34.602Z,29.4
2018-08-10T02:19:34.652Z,28.299999999999997
2018-08-10T02:21:34.778Z,29.4
2018-08-10T02:23:34.877Z,29.4
2018-08-10T02:25:35.042Z,29.4
2018-08-10T02:27:35.103Z,29.4
2018-08-10T02:29:35.227Z,29.4
2018-08-10T02:31:35.392Z,29.4
2018-08-10T02:33:35.490Z,29.4
2018-08-10T02:35:35.658Z,29.4
2018-08-10T02:37:35.714Z,29.4
2018-08-10T02:39:35.976Z,28.9
2018-08-10T02:41:36.080Z,29.4
2018-08-10T02:43:36.166Z,29.4
2018-08-10T02:45:36.430Z,29.4
2018-08-10T02:47:36.598Z,29.4
2018-08-10T02:49:36.814Z,28.9
2018-08-10T02:51:41.803Z,29.4
2018-08-10T02:53:41.988Z,29.4
2018-08-10T02:55:42.052Z,29.4
2018-08-10T02:57:37.335Z,29.4
2018-08-10T02:59:37.356Z,28.9
2018-08-10T03:01:37.399Z,29.4
2018-08-10T03:03:42.751Z,29.4
2018-08-10T03:05:37.662Z,28.9
2018-08-10T03:07:37.798Z,29.4
2018-08-10T03:09:37.857Z,28.9
2018-08-10T03:11:37.992Z,28.299999999999997
2018-08-10T03:13:38.175Z,28.9
2018-08-10T03:15:38.204Z,28.299999999999997
2018-08-10T03:17:38.334Z,28.299999999999997
2018-08-10T03:19:38.795Z,29.4
2018-08-10T03:21:38.759Z,28.299999999999997
2018-08-10T03:23:38.901Z,28.9
2018-08-10T03:25:39.074Z,29.4
2018-08-10T03:27:39.182Z,28.9
2018-08-10T03:29:44.431Z,29.4
2018-08-10T03:31:39.513Z,28.299999999999997
2018-08-10T03:33:39.644Z,28.299999999999997
2018-08-10T03:35:39.776Z,28.9
2018-08-10T03:37:40.070Z,28.299999999999997
2018-08-10T03:39:40.093Z,28.9
2018-08-10T03:41:40.282Z,28.299999999999997
2018-08-10T03:43:45.455Z,28.299999999999997
2018-08-10T03:45:40.521Z,28.9
2018-08-10T03:47:40.727Z,28.299999999999997
2018-08-10T03:49:40.853Z,29.4
2018-08-10T03:51:41.041Z,28.9
2018-08-10T03:53:41.270Z,28.9
2018-08-10T03:55:41.247Z,28.299999999999997
2018-08-10T03:57:41.547Z,28.299999999999997
2018-08-10T03:59:41.559Z,28.299999999999997
2018-08-10T04:01:41.673Z,28.299999999999997
2018-08-10T04:03:41.816Z,28.299999999999997
2018-08-10T04:05:41.961Z,28.299999999999997
2018-08-10T04:07:42.066Z,28.299999999999997
2018-08-10T04:09:42.392Z,28.299999999999997
2018-08-10T04:11:42.898Z,28.9
2018-08-10T04:13:42.984Z,28.9
2018-08-10T04:15:42.943Z,28.9
2018-08-10T04:17:43.213Z,28.299999999999997
2018-08-10T04:19:43.412Z,28.9
2018-08-10T04:21:43.414Z,29.4
2018-08-10T04:23:48.513Z,29.4
2018-08-10T04:25:43.721Z,29.4
2018-08-10T04:27:43.827Z,29.4
2018-08-10T04:29:44.184Z,29.4
2018-08-10T04:31:44.059Z,29.9
2018-08-10T04:33:44.333Z,29.9
2018-08-10T04:35:44.469Z,29.4
2018-08-10T04:37:44.605Z,29.4
2018-08-10T04:39:44.737Z,29.4
2018-08-10T04:41:45.184Z,29.4
2018-08-10T04:43:44.968Z,29.4
2018-08-10T04:45:45.094Z,29.4
2018-08-10T04:47:45.229Z,29.4
2018-08-10T04:49:45.347Z,29.4
2018-08-10T04:51:50.509Z,29.4
2018-08-10T04:53:45.755Z,29.4
2018-08-10T04:55:45.817Z,29.4
2018-08-10T04:57:46.069Z,29.4
2018-08-10T04:59:46.311Z,28.299999999999997
2018-08-10T05:01:46.229Z,28.9
2018-08-10T05:03:46.435Z,28.299999999999997
2018-08-10T05:05:46.501Z,27.799999999999997
2018-08-10T05:07:46.633Z,27.799999999999997
2018-08-10T05:09:46.735Z,28.299999999999997
2018-08-10T05:11:46.877Z,27.799999999999997
2018-08-10T05:13:47.040Z,27.200000000000003
2018-08-10T05:15:47.327Z,27.200000000000003
2018-08-10T05:17:47.295Z,28.299999999999997
2018-08-10T05:19:47.468Z,28.299999999999997
2018-08-10T05:21:47.590Z,28.299999999999997
2018-08-10T05:23:47.738Z,27.799999999999997
2018-08-10T05:25:48.064Z,28.299999999999997
2018-08-10T05:27:48.282Z,28.299999999999997
2018-08-10T05:29:48.313Z,28.299999999999997
2018-08-10T05:31:48.417Z,28.299999999999997
2018-08-10T05:33:48.725Z,28.299999999999997
2018-08-10T05:35:49.044Z,28.299999999999997
2018-08-10T05:37:48.945Z,28.299999999999997
2018-08-10T05:39:49.347Z,28.299999999999997
2018-08-10T05:41:49.195Z,28.299999999999997
2018-08-10T05:43:49.454Z,27.799999999999997
2018-08-10T05:45:49.469Z,28.299999999999997
2018-08-10T05:47:49.627Z,28.299999999999997
2018-08-10T05:49:49.688Z,27.799999999999997
2018-08-10T05:51:49.800Z,28.299999999999997
2018-08-10T05:53:49.908Z,27.799999999999997
2018-08-10T05:55:50.057Z,28.299999999999997
2018-08-10T05:57:50.188Z,27.200000000000003
2018-08-10T05:59:50.286Z,27.200000000000003
2018-08-10T06:01:50.566Z,27.200000000000003
2018-08-10T06:03:50.678Z,27.200000000000003
2018-08-10T06:05:50.647Z,27.200000000000003
2018-08-10T06:07:50.794Z,27.200000000000003
2018-08-10T06:09:50.862Z,27.200000000000003
2018-08-10T06:11:51.036Z,27.799999999999997
2018-08-10T06:13:51.244Z,27.799999999999997
2018-08-10T06:15:51.397Z,28.299999999999997
2018-08-10T06:17:51.772Z,27.200000000000003
2018-08-10T06:19:51.836Z,26.200000000000003
2018-08-10T06:21:51.919Z,26.200000000000003
2018-08-10T06:23:52.254Z,25.6
2018-08-10T06:25:52.270Z,26.200000000000003
2018-08-10T06:27:52.428Z,27.200000000000003
2018-08-10T06:29:52.497Z,27.200000000000003
2018-08-10T06:31:52.815Z,27.200000000000003
2018-08-10T06:33:52.816Z,27.200000000000003
2018-08-10T06:35:52.968Z,27.799999999999997
2018-08-10T06:37:53.135Z,27.799999999999997
2018-08-10T06:39:53.135Z,28.299999999999997
2018-08-10T06:41:53.288Z,28.299999999999997
2018-08-10T06:43:53.343Z,28.299999999999997
2018-08-10T06:45:53.406Z,28.299999999999997
2018-08-10T06:47:53.596Z,28.299999999999997
2018-08-10T06:49:53.895Z,28.299999999999997
2018-08-10T06:51:53.800Z,28.299999999999997
2018-08-10T06:53:53.963Z,28.299999999999997
2018-08-10T06:55:54.230Z,27.799999999999997
2018-08-10T06:57:54.358Z,28.299999999999997
2018-08-10T06:59:54.268Z,28.299999999999997
2018-08-10T07:01:54.420Z,27.799999999999997
2018-08-10T07:03:54.567Z,28.9
2018-08-10T07:05:54.719Z,28.9
2018-08-10T07:07:54.841Z,28.299999999999997
2018-08-10T07:09:54.905Z,28.9
2018-08-10T07:11:55.176Z,29.4
2018-08-10T07:13:55.239Z,29.4
2018-08-10T07:15:55.247Z,28.299999999999997
2018-08-10T07:17:55.511Z,29.4
2018-08-10T07:19:55.782Z,28.9
2018-08-10T07:21:56.020Z,29.4
2018-08-10T07:23:56.264Z,28.299999999999997
2018-08-10T07:25:56.138Z,29.4
2018-08-10T07:27:56.261Z,28.9
2018-08-10T07:29:56.414Z,29.4
2018-08-10T07:31:56.523Z,29.4
2018-08-10T07:33:56.780Z,28.299999999999997
2018-08-10T07:35:56.734Z,29.4
2018-08-10T07:37:56.872Z,29.4
2018-08-10T07:39:56.956Z,29.4
2018-08-10T07:41:57.114Z,29.4
2018-08-10T07:43:57.294Z,29.4
2018-08-10T07:45:57.427Z,29.4
2018-08-10T07:47:57.633Z,29.4
2018-08-10T07:49:57.605Z,28.9
2018-08-10T07:51:57.860Z,29.4
2018-08-10T07:53:57.979Z,29.4
2018-08-10T07:55:58.086Z,29.4
2018-08-10T07:57:58.209Z,29.4
2018-08-10T07:59:58.301Z,29.4
2018-08-10T08:01:58.435Z,29.4
2018-08-10T08:03:58.707Z,29.4
2018-08-10T08:05:58.721Z,29.4
2018-08-10T08:07:58.872Z,29.4
2018-08-10T08:09:59.033Z,29.4
2018-08-10T08:11:59.246Z,28.9
2018-08-10T08:13:59.204Z,29.4
2018-08-10T08:15:59.366Z,29.4
2018-08-10T08:17:59.524Z,28.9
2018-08-10T08:19:59.628Z,29.4
2018-08-10T08:21:59.750Z,29.4
2018-08-10T08:23:59.888Z,29.4
2018-08-10T08:25:59.933Z,29.4
2018-08-10T08:28:00.113Z,29.4
2018-08-10T08:30:00.225Z,29.4
2018-08-10T08:32:00.334Z,29.4
2018-08-10T08:34:05.654Z,28.9
2018-08-10T08:36:00.825Z,29.4
2018-08-10T08:38:00.759Z,29.4
2018-08-10T08:40:00.846Z,29.4
2018-08-10T08:42:01.128Z,29.4
2018-08-10T08:44:01.180Z,29.4
2018-08-10T08:46:01.612Z,29.4
2018-08-10T08:48:01.667Z,29.4
2018-08-10T08:50:01.885Z,29.4
2018-08-10T08:52:02.200Z,28.299999999999997
2018-08-10T08:54:02.748Z,29.4
2018-08-10T08:56:02.693Z,29.4
2018-08-10T08:58:02.845Z,28.9
2018-08-10T09:00:03.211Z,29.9
2018-08-10T09:02:02.966Z,29.4
2018-08-10T09:04:03.176Z,29.4
2018-08-10T09:06:03.280Z,29.4
2018-08-10T09:08:03.455Z,29.4
2018-08-10T09:10:03.644Z,28.9
2018-08-10T09:12:03.724Z,29.4
2018-08-10T09:14:03.878Z,29.4
2018-08-10T09:16:04.034Z,29.4
2018-08-10T09:18:04.170Z,29.4
2018-08-10T09:20:04.354Z,29.4
2018-08-10T09:22:04.490Z,29.4
2018-08-10T09:24:04.632Z,29.4
2018-08-10T09:26:04.920Z,29.4
2018-08-10T09:28:05.275Z,28.299999999999997
2018-08-10T09:30:05.017Z,29.4
2018-08-10T09:32:05.182Z,29.4
2018-08-10T09:34:05.325Z,29.4
2018-08-10T09:36:05.594Z,29.4
2018-08-10T09:38:05.529Z,29.4
2018-08-10T09:40:05.905Z,29.4
2018-08-10T09:42:11.140Z,29.4
2018-08-10T09:44:06.145Z,29.4
2018-08-10T09:46:06.354Z,29.4
2018-08-10T09:48:11.436Z,29.4
2018-08-10T09:50:06.466Z,29.4
2018-08-10T09:52:06.754Z,29.4
2018-08-10T09:54:06.726Z,28.9
2018-08-10T09:56:06.861Z,29.4
2018-08-10T09:58:06.967Z,29.4
2018-08-10T10:00:07.233Z,29.4
2018-08-10T10:02:07.194Z,29.4
2018-08-10T10:04:07.294Z,29.4
2018-08-10T10:06:07.562Z,29.4
2018-08-10T10:08:07.566Z,29.9
2018-08-10T10:10:07.721Z,29.4
2018-08-10T10:12:07.887Z,29.4
2018-08-10T10:14:07.947Z,29.4
2018-08-10T10:16:08.311Z,29.4
2018-08-10T10:18:08.170Z,29.9
2018-08-10T10:20:08.463Z,29.4
2018-08-10T10:22:08.777Z,29.4
2018-08-10T10:24:08.665Z,29.4
2018-08-10T10:26:08.781Z,29.4
2018-08-10T10:28:08.983Z,29.4
2018-08-10T10:30:09.068Z,29.9
2018-08-10T10:32:09.172Z,29.4
2018-08-10T10:34:09.477Z,29.4
2018-08-10T10:36:09.580Z,29.4
2018-08-10T10:38:09.961Z,29.4
2018-08-10T10:40:09.946Z,29.4
2018-08-10T10:42:10.045Z,29.4
2018-08-10T10:44:10.379Z,29.4
2018-08-10T10:46:10.269Z,29.4
2018-08-10T10:48:10.522Z,29.4
2018-08-10T10:50:10.555Z,29.4
2018-08-10T10:52:10.820Z,29.4
2018-08-10T10:54:10.846Z,29.4
2018-08-10T10:56:10.920Z,29.4
2018-08-10T10:58:11.101Z,29.4
2018-08-10T11:00:16.224Z,29.4
2018-08-10T11:02:11.378Z,29.4
2018-08-10T11:04:11.477Z,30.5
2018-08-10T11:06:11.693Z,29.4
2018-08-10T11:08:11.782Z,29.4
2018-08-10T11:10:11.907Z,29.4
2018-08-10T11:12:12.156Z,29.9
2018-08-10T11:14:12.337Z,29.4
2018-08-10T11:16:12.269Z,29.9
2018-08-10T11:18:12.423Z,29.4
2018-08-10T11:20:12.495Z,29.4
2018-08-10T11:22:12.704Z,29.4
2018-08-10T11:24:12.802Z,29.4
2018-08-10T11:26:12.934Z,29.4
2018-08-10T11:28:13.063Z,29.4
2018-08-10T11:30:13.213Z,29.4
2018-08-10T11:32:13.331Z,29.4
2018-08-10T11:34:13.440Z,29.4
2018-08-10T11:36:13.757Z,29.4
2018-08-10T11:38:13.771Z,29.4
2018-08-10T11:40:13.888Z,29.4
2018-08-10T11:42:14.001Z,29.4
2018-08-10T11:44:14.208Z,29.9
2018-08-10T11:46:14.336Z,29.4
2018-08-10T11:48:14.647Z,28.9
2018-08-10T11:50:14.565Z,29.4
2018-08-10T11:52:14.673Z,29.4
2018-08-10T11:54:15.038Z,29.4
2018-08-10T11:56:15.010Z,29.4
2018-08-10T11:58:15.235Z,29.9
2018-08-10T12:00:15.179Z,29.4
2018-08-10T12:02:15.288Z,29.4
2018-08-10T12:04:15.421Z,29.4
2018-08-10T12:06:15.811Z,29.4
2018-08-10T12:08:15.817Z,29.4
2018-08-10T12:10:15.779Z,29.4
2018-08-10T12:12:15.956Z,29.4
2018-08-10T12:14:16.076Z,29.9
2018-08-10T12:16:16.238Z,29.4
2018-08-10T12:18:16.611Z,29.4
2018-08-10T12:20:16.408Z,29.4
2018-08-10T12:22:16.949Z,29.4
2018-08-10T12:24:16.717Z,29.4
2018-08-10T12:26:16.830Z,29.9
2018-08-10T12:28:17.088Z,29.4
2018-08-10T12:30:17.366Z,29.4
2018-08-10T12:32:17.285Z,29.4
2018-08-10T12:34:17.529Z,29.9
2018-08-10T12:36:17.658Z,29.4
2018-08-10T12:38:17.725Z,29.4
2018-08-10T12:40:17.813Z,29.4
2018-08-10T12:42:18.093Z,29.4
2018-08-10T12:44:18.074Z,29.4
2018-08-10T12:46:18.345Z,29.4
2018-08-10T12:48:18.362Z,29.4
2018-08-10T12:50:18.593Z,29.9
2018-08-10T12:52:18.566Z,29.4
2018-08-10T12:54:18.772Z,29.4
2018-08-10T12:58:19.006Z,29.4
2018-08-10T13:00:19.454Z,29.4
2018-08-10T13:02:19.273Z,29.4
2018-08-10T13:04:19.471Z,29.4
2018-08-10T13:06:19.694Z,29.4
2018-08-10T13:08:19.747Z,29.4
2018-08-10T13:10:19.777Z,29.4
2018-08-10T13:12:19.938Z,29.4
2018-08-10T13:14:20.034Z,29.4
2018-08-10T13:16:20.332Z,29.4
2018-08-10T13:18:20.798Z,29.4
2018-08-10T13:20:20.555Z,29.4
2018-08-10T13:22:20.844Z,29.4
2018-08-10T13:24:20.957Z,29.4
2018-08-10T13:26:20.993Z,29.4
2018-08-10T13:28:21.055Z,29.4
2018-08-10T13:30:21.604Z,29.4
2018-08-10T13:32:21.264Z,29.4
2018-08-10T13:34:21.418Z,29.4
2018-08-10T13:36:21.568Z,29.4
2018-08-10T13:38:21.718Z,28.9
2018-08-10T13:40:22.013Z,29.4
2018-08-10T13:42:21.970Z,29.4
2018-08-10T13:44:22.085Z,28.9
2018-08-10T13:46:22.215Z,29.4
2018-08-10T13:48:22.345Z,29.4
2018-08-10T13:50:22.499Z,28.9
2018-08-10T13:52:22.655Z,28.9
2018-08-10T13:54:22.799Z,29.4
2018-08-10T13:56:23.113Z,28.299999999999997
2018-08-10T13:58:23.119Z,28.299999999999997
2018-08-10T14:00:23.455Z,28.9
2018-08-10T14:02:23.439Z,28.9
2018-08-10T14:04:23.462Z,28.299999999999997
2018-08-10T14:06:23.749Z,28.299999999999997
2018-08-10T14:08:23.961Z,28.299999999999997
2018-08-10T14:10:24.049Z,28.9
2018-08-10T14:12:24.308Z,29.4
2018-08-10T14:14:24.320Z,29.4
2018-08-10T14:16:24.564Z,29.4
2018-08-10T14:18:24.543Z,29.4
2018-08-10T14:20:24.684Z,29.4
2018-08-10T14:22:24.858Z,28.299999999999997
2018-08-10T14:24:25.181Z,28.9
2018-08-10T14:26:25.104Z,29.4
2018-08-10T14:28:25.249Z,28.9
2018-08-10T14:30:25.377Z,29.4
2018-08-10T14:32:25.524Z,29.4
2018-08-10T14:34:25.640Z,29.4
2018-08-10T14:36:25.890Z,28.9
2018-08-10T14:38:26.029Z,29.4
2018-08-10T14:40:25.963Z,29.4
2018-08-10T14:42:26.099Z,28.299999999999997
2018-08-10T14:44:26.198Z,28.9
2018-08-10T14:46:26.346Z,29.4
2018-08-10T14:48:26.478Z,29.4
2018-08-10T14:50:26.616Z,29.4
2018-08-10T14:52:26.770Z,29.4
2018-08-10T14:54:26.886Z,29.4
2018-08-10T14:56:27.026Z,29.4
2018-08-10T14:58:27.300Z,29.4
2018-08-10T15:00:27.636Z,29.4
2018-08-10T15:02:27.774Z,28.9
2018-08-10T15:04:27.972Z,28.9
2018-08-10T15:06:28.107Z,28.9
2018-08-10T15:08:28.233Z,28.9
2018-08-10T15:10:28.294Z,29.4
2018-08-10T15:12:28.920Z,29.4
2018-08-10T15:14:28.549Z,29.4
2018-08-10T15:16:28.691Z,29.4
2018-08-10T15:18:28.960Z,28.9
2018-08-10T15:20:29.043Z,29.4
2018-08-10T15:22:29.100Z,28.9
2018-08-10T15:24:29.467Z,28.9
2018-08-10T15:26:29.322Z,28.9
2018-08-10T15:28:29.511Z,29.4
2018-08-10T15:30:29.658Z,29.4
2018-08-10T15:32:29.743Z,29.4
2018-08-10T15:34:29.881Z,28.9
2018-08-10T15:36:30.166Z,29.4
2018-08-10T15:38:30.201Z,28.9
2018-08-10T15:40:30.256Z,29.4
2018-08-10T15:42:30.400Z,29.4
2018-08-10T15:44:30.558Z,29.4
2018-08-10T15:46:30.711Z,29.4
2018-08-10T15:48:31.005Z,29.4
2018-08-10T15:50:30.987Z,28.9
2018-08-10T15:52:31.452Z,29.4
2018-08-10T15:54:31.412Z,29.4
2018-08-10T15:56:31.665Z,29.4
2018-08-10T15:58:31.685Z,29.4
2018-08-10T16:00:31.816Z,29.4
2018-08-10T16:02:31.941Z,29.4
2018-08-10T16:04:32.240Z,29.4
2018-08-10T16:06:32.211Z,29.4
2018-08-10T16:08:32.366Z,29.4
2018-08-10T16:10:32.577Z,28.9
2018-08-10T16:12:32.672Z,29.4
2018-08-10T16:14:32.794Z,28.9
2018-08-10T16:16:32.967Z,28.9
2018-08-10T16:18:33.137Z,28.9
2018-08-10T16:20:33.327Z,28.299999999999997
2018-08-10T16:22:33.376Z,28.299999999999997
2018-08-10T16:24:33.531Z,29.4
2018-08-10T16:26:33.924Z,28.299999999999997
2018-08-10T16:28:34.212Z,28.299999999999997
2018-08-10T16:30:34.262Z,28.299999999999997
2018-08-10T16:32:34.568Z,29.4
2018-08-10T16:34:34.464Z,28.9
2018-08-10T16:36:34.747Z,28.9
2018-08-10T16:38:34.757Z,29.4
2018-08-10T16:40:34.865Z,29.4
2018-08-10T16:42:34.977Z,29.4
2018-08-10T16:44:35.124Z,29.4
2018-08-10T16:46:35.252Z,29.4
2018-08-10T16:48:35.361Z,28.299999999999997
2018-08-10T16:50:35.790Z,28.299999999999997
2018-08-10T16:52:35.580Z,28.299999999999997
2018-08-10T16:54:35.884Z,28.9
2018-08-10T16:56:35.844Z,28.9
2018-08-10T16:58:36.173Z,29.4
2018-08-10T17:00:36.305Z,28.9
2018-08-10T17:02:36.420Z,28.299999999999997
2018-08-10T17:04:36.579Z,29.4
2018-08-10T17:06:36.771Z,29.4
2018-08-10T17:08:36.741Z,29.4
2018-08-10T17:10:36.855Z,28.9
2018-08-10T17:12:36.986Z,29.4
2018-08-10T17:14:37.229Z,29.4
2018-08-10T17:16:37.191Z,29.4
2018-08-10T17:18:37.650Z,29.4
2018-08-10T17:20:37.558Z,29.4
2018-08-10T17:22:37.679Z,28.299999999999997
2018-08-10T17:24:37.983Z,28.299999999999997
2018-08-10T17:26:38.004Z,29.4
2018-08-10T17:28:38.080Z,28.9
2018-08-10T17:30:38.175Z,28.299999999999997
2018-08-10T17:32:38.385Z,29.4
2018-08-10T17:34:38.556Z,29.4
2018-08-10T17:36:38.539Z,29.4
2018-08-10T17:38:38.687Z,29.4
2018-08-10T17:40:38.778Z,29.4
2018-08-10T17:42:38.917Z,28.299999999999997
2018-08-10T17:44:39.060Z,29.4
2018-08-10T17:46:39.156Z,29.4
2018-08-10T17:48:39.718Z,28.9
2018-08-10T17:50:39.555Z,29.4
2018-08-10T17:52:39.552Z,28.9
2018-08-10T17:54:39.916Z,29.4
2018-08-10T17:56:39.911Z,28.299999999999997
2018-08-10T17:58:40.044Z,29.4
2018-08-10T18:00:40.309Z,29.4
2018-08-10T18:02:40.320Z,29.4
2018-08-10T18:04:40.468Z,28.299999999999997
2018-08-10T18:06:40.881Z,29.4
2018-08-10T18:08:40.791Z,29.4
2018-08-10T18:10:41.121Z,28.9
2018-08-10T18:12:41.252Z,28.299999999999997
2018-08-10T18:14:41.505Z,28.9
2018-08-10T18:16:41.464Z,29.4
2018-08-10T18:18:41.789Z,29.4
2018-08-10T18:20:41.858Z,28.9
2018-08-10T18:22:41.914Z,29.4
2018-08-10T18:24:42.310Z,29.4
2018-08-10T18:26:42.128Z,28.299999999999997
2018-08-10T18:28:42.462Z,29.4
2018-08-10T18:30:42.840Z,29.4
2018-08-10T18:32:42.573Z,29.4
2018-08-10T18:34:42.891Z,29.4
2018-08-10T18:36:43.017Z,29.4
2018-08-10T18:38:43.088Z,28.299999999999997
2018-08-10T18:40:43.321Z,29.4
2018-08-10T18:42:43.503Z,29.4
2018-08-10T18:44:43.428Z,28.9
2018-08-10T18:46:43.772Z,29.4
2018-08-10T18:48:43.830Z,29.4
2018-08-10T18:50:44.023Z,28.9
2018-08-10T18:52:44.054Z,28.299999999999997
2018-08-10T18:54:44.394Z,28.299999999999997
2018-08-10T18:56:44.290Z,28.9
2018-08-10T18:58:44.400Z,29.4
2018-08-10T19:00:44.739Z,29.4
2018-08-10T19:02:44.695Z,29.4
2018-08-10T19:04:44.831Z,28.299999999999997
2018-08-10T19:06:45.091Z,28.299999999999997
2018-08-10T19:08:45.234Z,28.9
2018-08-10T19:10:45.352Z,28.9
2018-08-10T19:12:45.377Z,28.9
2018-08-10T19:14:45.631Z,28.9
2018-08-10T19:16:45.660Z,29.4
2018-08-10T19:18:45.877Z,28.299999999999997
2018-08-10T19:20:45.978Z,28.299999999999997
2018-08-10T19:22:46.007Z,28.9
2018-08-10T19:24:46.293Z,28.299999999999997
2018-08-10T19:26:46.517Z,28.299999999999997
2018-08-10T19:28:46.621Z,28.299999999999997
2018-08-10T19:30:46.719Z,28.299999999999997
2018-08-10T19:32:46.860Z,28.299999999999997
2018-08-10T19:34:46.990Z,28.299999999999997
2018-08-10T19:36:47.274Z,29.4
2018-08-10T19:38:47.292Z,28.9
2018-08-10T19:40:47.330Z,29.4
2018-08-10T19:42:47.729Z,28.299999999999997
2018-08-10T19:44:47.618Z,29.4
2018-08-10T19:46:47.793Z,28.9
2018-08-10T19:48:47.879Z,28.9
2018-08-10T19:50:47.969Z,29.4
2018-08-10T19:52:48.116Z,28.299999999999997
2018-08-10T19:54:48.422Z,28.9
2018-08-10T19:56:48.362Z,28.9
2018-08-10T19:58:48.759Z,29.4
2018-08-10T20:00:48.637Z,29.4
2018-08-10T20:02:48.889Z,29.4
2018-08-10T20:04:48.844Z,29.4
2018-08-10T20:06:49.069Z,28.9
2018-08-10T20:08:49.159Z,29.4
2018-08-10T20:10:49.332Z,29.4
2018-08-10T20:12:49.469Z,29.4
2018-08-10T20:14:49.565Z,29.4
2018-08-10T20:16:49.688Z,29.4
2018-08-10T20:18:49.948Z,28.9
2018-08-10T20:20:49.888Z,29.4
2018-08-10T20:22:50.044Z,28.9
2018-08-10T20:24:50.139Z,29.4
2018-08-10T20:26:50.290Z,29.4
2018-08-10T20:28:50.609Z,28.9
2018-08-10T20:30:50.535Z,29.4
2018-08-10T20:32:50.665Z,29.4
2018-08-10T20:34:50.789Z,29.4
2018-08-10T20:36:51.048Z,29.4
2018-08-10T20:38:51.162Z,29.4
2018-08-10T20:40:51.342Z,29.4
2018-08-10T20:42:51.535Z,29.4
2018-08-10T20:44:51.728Z,29.4
2018-08-10T20:46:51.682Z,29.4
2018-08-10T20:48:51.844Z,28.9
2018-08-10T20:50:52.005Z,29.4
2018-08-10T20:52:52.079Z,29.4
2018-08-10T20:54:52.641Z,29.4
2018-08-10T20:56:52.445Z,29.4
2018-08-10T20:58:52.569Z,29.4
2018-08-10T21:00:52.651Z,29.4
2018-08-10T21:02:52.956Z,29.4
2018-08-10T21:04:52.847Z,29.4
2018-08-10T21:06:52.991Z,29.4
2018-08-10T21:08:53.221Z,29.4
2018-08-10T21:10:53.311Z,28.299999999999997
2018-08-10T21:12:53.644Z,29.4
2018-08-10T21:14:53.545Z,29.4
2018-08-10T21:16:53.818Z,28.9
2018-08-10T21:18:54.020Z,29.4
2018-08-10T21:20:53.936Z,29.4
2018-08-10T21:22:54.124Z,28.9
2018-08-10T21:24:54.166Z,29.4
2018-08-10T21:26:54.287Z,29.4
2018-08-10T21:28:54.441Z,29.4
2018-08-10T21:30:54.516Z,29.4
2018-08-10T21:32:54.725Z,29.4
2018-08-10T21:34:55.205Z,29.4
2018-08-10T21:36:55.077Z,28.9
2018-08-10T21:38:55.232Z,29.4
2018-08-10T21:40:55.313Z,29.4
2018-08-10T21:42:55.469Z,28.299999999999997
2018-08-10T21:44:55.607Z,28.9
2018-08-10T21:46:55.713Z,29.4
2018-08-10T21:48:55.809Z,28.9
2018-08-10T21:50:55.925Z,29.4
2018-08-10T21:52:56.044Z,29.4
2018-08-10T21:54:56.219Z,29.4
2018-08-10T21:56:56.293Z,29.4
2018-08-10T21:58:56.425Z,29.4
2018-08-10T22:00:56.682Z,28.9
2018-08-10T22:02:56.677Z,29.4
2018-08-10T22:04:56.976Z,28.9
2018-08-10T22:06:56.905Z,29.4
2018-08-10T22:08:57.027Z,29.4
2018-08-10T22:10:57.217Z,29.4
2018-08-10T22:12:57.651Z,29.4
2018-08-10T22:14:57.511Z,29.4
2018-08-10T22:16:57.793Z,28.299999999999997
2018-08-10T22:18:57.917Z,29.4
2018-08-10T22:20:57.825Z,28.9
2018-08-10T22:22:57.972Z,29.4
2018-08-10T22:24:58.240Z,29.4
2018-08-10T22:26:58.408Z,28.9
2018-08-10T22:28:58.410Z,29.4
2018-08-10T22:30:58.508Z,29.4
2018-08-10T22:32:58.659Z,29.4
2018-08-10T22:34:58.802Z,29.4
2018-08-10T22:36:58.945Z,28.9
2018-08-10T22:38:59.094Z,28.9
2018-08-10T22:40:59.240Z,28.299999999999997
2018-08-10T22:42:59.574Z,29.4
2018-08-10T22:44:59.740Z,28.299999999999997
2018-08-10T22:46:59.719Z,29.4
2018-08-10T22:48:59.991Z,29.4
2018-08-10T22:50:59.949Z,28.299999999999997
2018-08-10T22:53:00.081Z,28.9
2018-08-10T22:55:00.579Z,28.9
2018-08-10T22:57:00.363Z,28.9
2018-08-10T22:59:00.489Z,29.4
2018-08-10T23:01:00.709Z,29.4
2018-08-10T23:03:00.753Z,28.299999999999997
2018-08-10T23:05:00.974Z,29.9
2018-08-10T23:07:01.148Z,29.4
2018-08-10T23:09:01.319Z,28.9
2018-08-10T23:11:01.715Z,29.4
2018-08-10T23:13:01.738Z,29.4
2018-08-10T23:15:02.007Z,28.9
2018-08-10T23:17:02.556Z,29.4
2018-08-10T23:19:02.980Z,28.9
2018-08-10T23:21:03.121Z,29.4
2018-08-10T23:23:03.389Z,29.4
2018-08-10T23:25:03.823Z,29.4
2018-08-10T23:27:03.619Z,29.4
2018-08-10T23:29:03.909Z,29.4
2018-08-10T23:31:03.950Z,29.4
2018-08-10T23:33:04.052Z,29.4
2018-08-10T23:35:04.199Z,29.4
2018-08-10T23:37:04.342Z,28.9
2018-08-10T23:39:04.443Z,28.299999999999997
2018-08-10T23:41:04.606Z,29.4
2018-08-10T23:43:04.736Z,29.4
2018-08-10T23:45:04.897Z,29.4
2018-08-10T23:47:05.019Z,29.4
2018-08-10T23:49:05.497Z,28.299999999999997
2018-08-10T23:51:05.244Z,29.4
2018-08-10T23:53:05.417Z,29.4
2018-08-10T23:55:05.838Z,29.4
2018-08-10T23:57:05.851Z,29.4
2018-08-10T23:59:05.815Z,29.4
